createdAt,value
2023-02-02T00:01:34.547Z,95.30
2023-02-02T00:04:02.174Z,91.43
2023-02-02T00:06:31.153Z,94.68
2023-02-02T00:09:00.955Z,92.65
2023-02-02T00:11:28.801Z,83.97
2023-02-02T00:13:56.062Z,84.22
2023-02-02T00:16:35.289Z,79.72
2023-02-02T00:19:24.771Z,89.07
2023-02-02T00:21:53.535Z,81.93
2023-02-02T00:24:21.397Z,78.78
2023-02-02T00:26:51.576Z,82.95
2023-02-02T00:29:31.267Z,85.97
2023-02-02T00:31:58.664Z,83.75
2023-02-02T00:34:26.044Z,76.20
2023-02-02T00:36:53.676Z,74.55
2023-02-02T00:39:26.054Z,81.75
2023-02-02T00:41:54.263Z,78.45
2023-02-02T00:44:40.665Z,74.80
2023-02-02T00:47:07.996Z,76.70
2023-02-02T00:49:35.339Z,79.05
2023-02-02T00:52:02.743Z,80.93
2023-02-02T00:54:30.575Z,72.65
2023-02-02T00:56:57.944Z,79.32
2023-02-02T00:59:25.289Z,82.97
2023-02-02T01:01:52.610Z,72.07
2023-02-02T01:04:20.005Z,78.55
2023-02-02T01:06:47.316Z,78.15
2023-02-02T01:09:14.655Z,73.43
2023-02-02T01:11:42.066Z,73.57
2023-02-02T01:14:09.415Z,79.80
2023-02-02T01:16:37.207Z,69.07
2023-02-02T01:19:04.947Z,71.38
2023-02-02T01:21:32.514Z,75.80
2023-02-02T01:24:00.014Z,75.18
2023-02-02T01:26:27.695Z,75.47
2023-02-02T01:28:55.128Z,69.20
2023-02-02T01:31:22.494Z,75.95
2023-02-02T01:33:50.678Z,74.72
2023-02-02T01:36:23.360Z,78.78
2023-02-02T01:38:51.155Z,73.25
2023-02-02T01:41:24.658Z,71.85
2023-02-02T01:43:57.193Z,78.28
2023-02-02T01:46:36.129Z,77.03
2023-02-02T01:49:10.060Z,76.53
2023-02-02T01:51:43.450Z,79.43
2023-02-02T01:54:16.118Z,75.97
2023-02-02T01:56:50.397Z,72.28
2023-02-02T01:59:18.796Z,80.80
2023-02-02T02:01:48.789Z,76.38
2023-02-02T02:04:17.506Z,77.97
2023-02-02T02:06:45.866Z,76.00
2023-02-02T02:09:13.488Z,76.03
2023-02-02T02:11:40.891Z,78.18
2023-02-02T02:14:30.101Z,79.65
2023-02-02T02:17:15.400Z,78.07
2023-02-02T02:20:07.567Z,74.20
2023-02-02T02:23:16.815Z,73.18
2023-02-02T02:26:22.368Z,80.65
2023-02-02T02:29:14.928Z,80.22
2023-02-02T02:31:48.511Z,75.45
2023-02-02T02:34:43.191Z,79.43
2023-02-02T02:37:12.941Z,77.47
2023-02-02T02:40:08.573Z,74.60
2023-02-02T02:42:41.775Z,76.97
2023-02-02T02:45:12.014Z,75.05
2023-02-02T02:47:41.641Z,83.97
2023-02-02T02:50:09.876Z,78.30
2023-02-02T02:52:38.845Z,83.68
2023-02-02T02:55:07.432Z,82.00
2023-02-02T02:57:50.628Z,80.72
2023-02-02T03:00:48.191Z,76.65
2023-02-02T03:03:41.505Z,80.25
2023-02-02T03:06:29.388Z,77.97
2023-02-02T03:09:23.198Z,72.63
2023-02-02T03:11:50.835Z,76.35
2023-02-02T03:14:18.299Z,76.47
2023-02-02T03:16:45.831Z,74.60
2023-02-02T03:19:13.424Z,75.82
2023-02-02T03:21:40.884Z,76.35
2023-02-02T03:24:08.465Z,74.00
2023-02-02T03:26:36.216Z,81.50
2023-02-02T03:29:03.799Z,76.90
2023-02-02T03:31:31.239Z,77.72
2023-02-02T03:33:58.739Z,78.45
2023-02-02T03:36:26.415Z,75.25
2023-02-02T03:38:54.041Z,75.35
2023-02-02T03:41:21.660Z,83.57
2023-02-02T03:43:49.270Z,82.15
2023-02-02T03:46:16.729Z,76.90
2023-02-02T03:48:44.413Z,79.35
2023-02-02T03:51:13.928Z,85.30
2023-02-02T03:53:47.822Z,78.38
2023-02-02T03:56:16.206Z,77.15
2023-02-02T03:58:43.776Z,78.20
2023-02-02T04:01:13.385Z,81.90
2023-02-02T04:03:41.197Z,73.85
2023-02-02T04:06:09.098Z,75.00
2023-02-02T04:08:36.705Z,73.82
2023-02-02T04:11:04.095Z,79.13
2023-02-02T04:13:31.511Z,80.82
2023-02-02T04:16:00.206Z,84.45
2023-02-02T04:18:28.629Z,80.85
2023-02-02T04:20:57.765Z,90.65
2023-02-02T04:23:25.584Z,86.13
2023-02-02T04:25:53.261Z,84.57
2023-02-02T04:28:22.615Z,83.78
2023-02-02T04:30:50.975Z,79.25
2023-02-02T04:33:18.463Z,83.65
2023-02-02T04:35:46.138Z,80.05
2023-02-02T04:38:14.429Z,78.40
2023-02-02T04:40:44.656Z,79.13
2023-02-02T04:43:12.655Z,89.03
2023-02-02T04:45:40.446Z,85.25
2023-02-02T04:48:08.255Z,82.22
2023-02-02T04:50:35.801Z,84.70
2023-02-02T04:53:03.876Z,87.60
2023-02-02T04:55:31.271Z,87.38
2023-02-02T04:57:58.756Z,86.88
2023-02-02T05:00:26.214Z,96.88
2023-02-02T05:02:53.736Z,98.72
2023-02-02T05:05:21.274Z,91.32
2023-02-02T05:07:48.749Z,92.13
2023-02-02T05:10:16.362Z,90.50
2023-02-02T05:12:43.866Z,97.03
2023-02-02T05:15:11.522Z,92.35
2023-02-02T05:17:39.147Z,89.00
2023-02-02T05:20:07.078Z,82.95
2023-02-02T05:22:35.248Z,80.38
2023-02-02T05:25:02.630Z,89.05
2023-02-02T05:27:30.533Z,84.43
2023-02-02T05:29:57.907Z,88.07
2023-02-02T05:32:25.447Z,85.25
2023-02-02T05:34:52.809Z,87.30
2023-02-02T05:37:20.574Z,87.60
2023-02-02T05:39:49.833Z,82.93
2023-02-02T05:42:17.231Z,85.05
2023-02-02T05:44:44.653Z,89.32
2023-02-02T05:47:12.194Z,88.07
2023-02-02T05:49:39.628Z,82.53
2023-02-02T05:52:08.376Z,89.00
2023-02-02T05:54:35.803Z,83.90
2023-02-02T05:57:03.437Z,90.72
2023-02-02T05:59:30.912Z,88.55
2023-02-02T06:01:58.617Z,89.15
2023-02-02T06:04:26.342Z,87.97
2023-02-02T06:06:53.893Z,87.07
2023-02-02T06:09:21.375Z,66.82
2023-02-02T06:11:48.746Z,61.60
2023-02-02T06:14:16.195Z,61.95
2023-02-02T06:16:43.871Z,62.42
2023-02-02T06:19:11.322Z,50.90
2023-02-02T06:21:38.898Z,55.03
2023-02-02T06:24:07.195Z,54.38
2023-02-02T06:26:34.829Z,50.35
2023-02-02T06:29:02.949Z,42.17
2023-02-02T06:31:30.817Z,40.50
2023-02-02T06:33:58.970Z,36.00
2023-02-02T06:36:27.651Z,37.67
2023-02-02T06:38:57.159Z,39.53
2023-02-02T06:41:25.523Z,48.55
2023-02-02T06:43:53.092Z,40.95
2023-02-02T06:46:20.606Z,51.50
2023-02-02T06:48:48.682Z,59.42
2023-02-02T06:51:16.682Z,57.55
2023-02-02T06:53:44.380Z,62.05
2023-02-02T06:56:13.139Z,58.10
2023-02-02T06:58:41.389Z,47.33
2023-02-02T07:01:12.126Z,49.60
2023-02-02T07:03:39.831Z,52.67
2023-02-02T07:06:27.657Z,50.47
2023-02-02T07:09:02.107Z,52.60
2023-02-02T07:11:39.095Z,45.47
2023-02-02T07:14:12.576Z,35.40
2023-02-02T07:16:40.049Z,37.40
2023-02-02T07:19:07.540Z,33.60
2023-02-02T07:21:37.892Z,34.53
2023-02-02T07:24:06.431Z,39.95
2023-02-02T07:26:36.285Z,37.00
2023-02-02T07:29:04.650Z,32.33
2023-02-02T07:31:34.807Z,35.22
2023-02-02T07:34:03.833Z,35.33
2023-02-02T07:36:31.363Z,34.42
2023-02-02T07:38:59.768Z,32.67
2023-02-02T07:41:28.010Z,37.30
2023-02-02T07:43:55.561Z,30.63
2023-02-02T07:46:23.018Z,30.10
2023-02-02T07:48:55.387Z,34.00
2023-02-02T07:51:24.681Z,31.17
2023-02-02T07:53:55.618Z,32.30
2023-02-02T07:56:26.468Z,31.02
2023-02-02T07:58:55.099Z,32.03
2023-02-02T08:01:26.086Z,35.47
2023-02-02T08:03:55.204Z,38.53
2023-02-02T08:06:25.834Z,35.33
2023-02-02T08:08:53.193Z,39.05
2023-02-02T08:11:22.568Z,32.60
2023-02-02T08:13:54.906Z,48.40
2023-02-02T08:16:23.798Z,44.83
2023-02-02T08:18:51.630Z,43.17
2023-02-02T08:21:19.777Z,47.85
2023-02-02T08:23:47.440Z,49.85
2023-02-02T08:26:18.306Z,61.03
2023-02-02T08:28:48.031Z,60.28
2023-02-02T08:31:19.033Z,66.88
2023-02-02T08:33:46.351Z,72.60
2023-02-02T08:36:15.527Z,72.05
2023-02-02T08:38:43.447Z,77.97
2023-02-02T08:41:14.088Z,75.80
2023-02-02T08:43:41.667Z,85.47
2023-02-02T08:46:11.896Z,82.00
2023-02-02T08:48:39.555Z,87.13
2023-02-02T08:51:10.019Z,95.97
2023-02-02T08:53:37.689Z,91.97
2023-02-02T08:56:07.908Z,96.55
2023-02-02T08:58:35.471Z,101.03
2023-02-02T09:01:14.841Z,97.95
2023-02-02T09:03:42.582Z,103.45
2023-02-02T09:06:12.761Z,109.05
2023-02-02T09:08:40.938Z,102.68
2023-02-02T09:11:19.260Z,99.18
2023-02-02T09:13:48.870Z,104.00
2023-02-02T09:16:18.273Z,99.60
2023-02-02T09:18:46.019Z,90.15
2023-02-02T09:21:16.097Z,89.68
2023-02-02T09:23:44.623Z,94.57
2023-02-02T09:26:30.303Z,86.82
2023-02-02T09:29:02.925Z,84.93
2023-02-02T09:31:34.083Z,84.40
2023-02-02T09:34:03.207Z,77.00
2023-02-02T09:36:30.779Z,80.68
2023-02-02T09:38:58.102Z,78.75
2023-02-02T09:41:37.855Z,73.95
2023-02-02T09:44:14.335Z,78.65
2023-02-02T09:47:19.030Z,76.35
2023-02-02T09:49:56.851Z,75.30
2023-02-02T09:52:56.355Z,77.90
2023-02-02T09:55:36.184Z,69.45
2023-02-02T09:58:13.038Z,71.38
2023-02-02T10:01:16.396Z,73.82
2023-02-02T10:03:56.082Z,71.38
2023-02-02T10:06:43.795Z,77.10
2023-02-02T10:09:35.133Z,76.05
2023-02-02T10:12:05.680Z,78.22
2023-02-02T10:15:00.618Z,72.65
2023-02-02T10:17:50.386Z,78.32
2023-02-02T10:20:21.184Z,81.28
2023-02-02T10:22:49.924Z,77.28
2023-02-02T10:25:17.937Z,82.25
2023-02-02T10:28:08.587Z,78.10
2023-02-02T10:31:00.993Z,74.85
2023-02-02T10:33:40.656Z,73.22
2023-02-02T10:36:31.810Z,75.88
2023-02-02T10:39:14.355Z,75.22
2023-02-02T10:41:50.319Z,81.95
2023-02-02T11:06:08.793Z,53.10
2023-02-02T11:08:43.024Z,55.60
2023-02-02T11:11:25.725Z,45.75
2023-02-02T11:14:08.259Z,49.92
2023-02-02T11:16:43.793Z,36.70
2023-02-02T11:19:33.818Z,37.70
2023-02-02T11:22:03.416Z,34.28
2023-02-02T11:25:02.116Z,36.05
2023-02-02T11:27:32.706Z,35.85
2023-02-02T11:30:10.106Z,39.85
2023-02-02T11:32:37.983Z,44.33
2023-02-02T11:35:10.922Z,57.95
2023-02-02T11:37:38.488Z,64.80
2023-02-02T11:40:31.216Z,63.97
2023-02-02T11:43:06.406Z,68.30
2023-02-02T11:45:40.420Z,72.63
2023-02-02T11:48:13.775Z,65.20
2023-02-02T11:50:49.174Z,65.72
2023-02-02T11:53:36.793Z,63.75
2023-02-02T11:56:07.831Z,57.08
2023-02-02T11:58:56.471Z,55.63
2023-02-02T12:01:25.867Z,47.00
2023-02-02T12:03:59.199Z,46.38
2023-02-02T12:06:34.264Z,48.53
2023-02-02T12:09:09.864Z,48.83
2023-02-02T12:11:49.668Z,46.22
2023-02-02T12:14:28.909Z,41.53
2023-02-02T12:17:14.710Z,31.92
2023-02-02T12:20:03.703Z,23.45
2023-02-02T12:22:58.960Z,19.15
2023-02-02T12:25:44.841Z,19.92
2023-02-02T12:28:43.825Z,25.05
2023-02-02T12:31:23.086Z,34.47
2023-02-02T12:34:10.728Z,18.25
2023-02-02T12:37:13.622Z,18.45
2023-02-02T12:40:12.742Z,17.33
2023-02-02T12:42:52.567Z,17.10
2023-02-02T12:45:58.574Z,18.63
2023-02-02T12:48:59.099Z,21.52
2023-02-02T12:51:57.671Z,19.50
2023-02-02T12:55:02.680Z,20.15
2023-02-02T12:57:40.058Z,20.55
2023-02-02T13:00:35.236Z,18.15
2023-02-02T13:03:32.810Z,13.90
2023-02-02T13:06:09.596Z,13.57
2023-02-02T13:09:12.613Z,10.60
2023-02-02T13:11:50.932Z,16.15
2023-02-02T13:14:31.886Z,10.40
2023-02-02T13:17:21.677Z,12.27
2023-02-02T13:19:56.484Z,9.63
2023-02-02T13:22:40.793Z,9.77
2023-02-02T13:25:27.244Z,10.65
2023-02-02T13:27:56.528Z,14.23
2023-02-02T13:30:38.778Z,10.75
2023-02-02T13:33:29.904Z,17.48
2023-02-02T13:36:29.548Z,14.15
2023-02-02T13:39:00.205Z,13.27
2023-02-02T13:41:28.897Z,13.20
2023-02-02T13:44:12.601Z,14.73
2023-02-02T13:46:55.684Z,10.93
2023-02-02T13:49:41.759Z,14.20
2023-02-02T13:52:27.577Z,13.57
2023-02-02T13:55:26.343Z,12.73
2023-02-02T13:58:12.335Z,20.13
2023-02-02T14:00:53.998Z,21.15
2023-02-02T14:03:38.645Z,20.38
2023-02-02T14:06:17.645Z,23.42
2023-02-02T14:08:46.837Z,18.27
2023-02-02T14:11:24.680Z,22.00
2023-02-02T14:14:15.546Z,23.83
2023-02-02T14:16:46.530Z,22.88
2023-02-02T14:19:16.070Z,19.50
2023-02-02T14:21:44.003Z,18.65
2023-02-02T14:24:26.381Z,25.13
2023-02-02T14:27:00.133Z,24.63
2023-02-02T14:29:34.787Z,21.48
2023-02-02T14:32:27.800Z,26.27
2023-02-02T14:35:08.329Z,24.67
2023-02-02T14:37:41.603Z,20.42
2023-02-02T14:40:26.784Z,21.92
2023-02-02T14:43:40.826Z,21.83
2023-02-02T14:46:38.778Z,22.20
2023-02-02T14:49:14.813Z,27.02
2023-02-02T14:51:58.803Z,30.50
2023-02-02T14:54:41.417Z,22.40
2023-02-02T14:57:28.532Z,25.50
2023-02-02T14:59:59.985Z,29.08
2023-02-02T15:02:38.148Z,26.80
2023-02-02T15:05:34.063Z,26.83
2023-02-02T15:08:27.774Z,20.90
2023-02-02T15:10:55.001Z,28.35
2023-02-02T15:13:26.865Z,30.08
2023-02-02T15:16:07.502Z,21.63
2023-02-02T15:18:44.519Z,25.63
2023-02-02T15:21:17.288Z,22.85
2023-02-02T15:23:46.849Z,24.30
2023-02-02T15:26:24.683Z,30.77
2023-02-02T15:29:06.811Z,25.27
2023-02-02T15:31:42.951Z,22.30
2023-02-02T15:34:23.328Z,23.10
2023-02-02T15:36:59.978Z,26.35
2023-02-02T15:39:41.239Z,25.15
2023-02-02T15:42:36.445Z,18.27
2023-02-02T15:45:04.430Z,20.65
2023-02-02T15:47:36.340Z,20.55
2023-02-02T15:50:19.471Z,15.27
2023-02-02T15:52:52.374Z,17.10
2023-02-02T15:55:24.660Z,20.88
2023-02-02T15:57:54.352Z,17.88
2023-02-02T16:00:37.889Z,15.30
2023-02-02T16:03:10.913Z,18.10
2023-02-02T16:05:44.329Z,16.15
2023-02-02T16:08:17.843Z,18.50
2023-02-02T16:10:46.836Z,14.77
2023-02-02T16:13:23.899Z,17.00
2023-02-02T16:16:00.574Z,18.10
2023-02-02T16:18:28.387Z,11.93
2023-02-02T16:20:59.261Z,14.95
2023-02-02T16:23:35.958Z,17.38
2023-02-02T16:26:06.025Z,20.25
2023-02-02T16:28:36.909Z,13.98
2023-02-02T16:31:05.226Z,15.82
2023-02-02T16:33:40.843Z,13.30
2023-02-02T16:36:24.389Z,14.32
2023-02-02T16:38:53.949Z,16.00
2023-02-02T16:41:37.114Z,11.80
2023-02-02T16:44:45.642Z,13.30
2023-02-02T16:47:27.954Z,13.55
2023-02-02T16:50:24.887Z,13.75
2023-02-02T16:52:56.431Z,14.98
2023-02-02T16:55:24.326Z,14.55
2023-02-02T16:57:52.252Z,16.08
2023-02-02T17:00:25.329Z,19.70
2023-02-02T17:03:08.424Z,13.82
2023-02-02T17:05:47.829Z,13.73
2023-02-02T17:08:35.106Z,13.40
2023-02-02T17:11:06.280Z,15.40
2023-02-02T17:13:36.626Z,21.87
2023-02-02T17:16:05.173Z,21.60
2023-02-02T17:18:35.240Z,17.58
2023-02-02T17:21:07.436Z,27.27
2023-02-02T17:23:38.926Z,21.80
2023-02-02T17:26:08.189Z,19.50
2023-02-02T17:28:37.518Z,32.67
2023-02-02T17:31:11.620Z,34.13
2023-02-02T17:33:39.633Z,48.60
2023-02-02T17:36:08.393Z,37.55
2023-02-02T17:38:35.748Z,37.55
2023-02-02T17:41:03.342Z,34.65
2023-02-02T17:43:32.639Z,34.08
2023-02-02T17:46:00.440Z,29.88
2023-02-02T17:48:27.917Z,30.90
2023-02-02T17:50:55.168Z,29.02
2023-02-02T17:53:22.716Z,34.30
2023-02-02T17:55:51.510Z,33.97
2023-02-02T17:58:19.423Z,42.22
2023-02-02T18:00:51.886Z,40.72
2023-02-02T18:03:30.248Z,35.17
2023-02-02T18:06:01.585Z,45.63
2023-02-02T18:08:30.315Z,48.17
2023-02-02T18:10:59.392Z,42.78
2023-02-02T18:13:27.497Z,37.42
2023-02-02T18:15:56.015Z,47.70
2023-02-02T18:18:23.722Z,41.58
2023-02-02T18:20:51.454Z,44.80
2023-02-02T18:23:19.204Z,42.22
2023-02-02T18:25:46.739Z,40.53
2023-02-02T18:28:17.084Z,43.50
2023-02-02T18:30:46.937Z,34.05
2023-02-02T18:33:19.449Z,38.47
2023-02-02T18:35:47.891Z,34.58
2023-02-02T18:38:15.432Z,33.65
2023-02-02T18:40:42.890Z,41.20
2023-02-02T18:43:10.431Z,36.55
2023-02-02T18:45:37.752Z,40.67
2023-02-02T18:48:05.118Z,40.58
2023-02-02T18:50:32.333Z,40.72
2023-02-02T18:53:00.629Z,37.05
2023-02-02T18:55:28.403Z,36.90
2023-02-02T18:57:56.019Z,32.97
2023-02-02T19:00:23.410Z,38.40
2023-02-02T19:02:50.723Z,44.88
2023-02-02T19:05:36.567Z,35.97
2023-02-02T19:08:05.762Z,39.88
2023-02-02T19:10:33.118Z,41.85
2023-02-02T19:13:19.086Z,41.17
2023-02-02T19:15:48.833Z,39.90
2023-02-02T19:18:19.446Z,44.40
2023-02-02T19:20:49.140Z,36.50
2023-02-02T19:23:19.004Z,39.00
2023-02-02T19:25:51.377Z,38.13
2023-02-02T19:28:30.714Z,41.60
2023-02-02T19:31:02.870Z,39.05
2023-02-02T19:33:47.213Z,40.03
2023-02-02T19:36:19.178Z,41.78
2023-02-02T19:41:22.611Z,36.88
2023-02-02T19:43:55.820Z,47.17
2023-02-02T19:46:25.961Z,38.15
2023-02-02T19:49:04.003Z,44.72
2023-02-02T19:51:39.394Z,40.33
2023-02-02T19:54:25.663Z,43.65
2023-02-02T19:57:14.478Z,39.15
2023-02-02T19:59:43.308Z,42.33
2023-02-02T20:02:41.312Z,43.58
2023-02-02T20:05:11.420Z,42.20
2023-02-02T20:07:39.126Z,37.15
2023-02-02T20:10:36.917Z,45.88
2023-02-02T20:13:23.276Z,45.63
2023-02-02T20:15:54.685Z,49.72
2023-02-02T20:18:42.336Z,52.33
2023-02-02T20:21:25.363Z,66.90
2023-02-02T20:23:53.102Z,70.65
2023-02-02T20:26:34.625Z,75.80
2023-02-02T20:29:22.954Z,83.80
2023-02-02T20:31:52.781Z,90.43
2023-02-02T20:34:32.932Z,77.93
2023-02-02T20:37:16.262Z,79.75
2023-02-02T20:39:47.881Z,84.65
2023-02-02T20:42:15.345Z,109.22
2023-02-02T20:44:42.974Z,105.63
2023-02-02T20:47:10.396Z,105.40
2023-02-02T20:49:38.397Z,101.50
2023-02-02T20:52:10.654Z,99.28
2023-02-02T20:54:39.212Z,107.32
2023-02-02T20:57:08.936Z,101.78
2023-02-02T20:59:36.402Z,105.85
2023-02-02T21:02:05.270Z,117.43
2023-02-02T21:04:32.740Z,115.25
2023-02-02T21:07:00.156Z,113.97
2023-02-02T21:09:27.544Z,110.25
2023-02-02T21:11:54.775Z,101.00
2023-02-02T21:14:22.113Z,106.85
2023-02-02T21:16:49.408Z,113.15
2023-02-02T21:19:16.822Z,118.72
2023-02-02T21:21:44.138Z,111.60
2023-02-02T21:24:11.461Z,110.82
2023-02-02T21:26:38.927Z,116.75
2023-02-02T21:29:06.307Z,114.15
2023-02-02T21:31:35.833Z,115.28
2023-02-02T21:34:03.338Z,123.18
2023-02-02T21:36:33.487Z,125.03
2023-02-02T21:39:21.557Z,125.82
2023-02-02T21:41:49.942Z,127.72
2023-02-02T21:44:19.622Z,121.60
2023-02-02T21:46:51.599Z,128.13
2023-02-02T21:51:49.079Z,128.25
2023-02-02T21:54:28.035Z,123.55
2023-02-02T21:56:55.682Z,123.22
2023-02-02T21:59:28.494Z,121.00
2023-02-02T22:01:55.732Z,125.97
2023-02-02T22:04:24.459Z,124.47
2023-02-02T22:06:58.886Z,117.97
2023-02-02T22:09:38.213Z,125.60
2023-02-02T22:12:17.552Z,123.47
2023-02-02T22:14:46.265Z,118.38
2023-02-02T22:17:25.172Z,122.70
2023-02-02T22:20:10.107Z,130.45
2023-02-02T22:22:42.117Z,131.38
2023-02-02T22:25:18.335Z,128.70
2023-02-02T22:27:50.899Z,127.10
2023-02-02T22:30:29.179Z,126.68
2023-02-02T22:32:56.789Z,130.80
2023-02-02T22:35:24.621Z,134.55
2023-02-02T22:37:51.883Z,133.88
2023-02-02T22:40:22.431Z,133.50
2023-02-02T22:42:51.158Z,128.88
2023-02-02T22:45:18.548Z,126.13
2023-02-02T22:47:47.582Z,131.57
2023-02-02T22:50:26.245Z,129.23
2023-02-02T22:52:53.816Z,138.82
2023-02-02T22:55:21.743Z,133.55
2023-02-02T22:57:49.040Z,137.95
2023-02-02T23:00:18.841Z,128.63
2023-02-02T23:02:47.336Z,127.45
2023-02-02T23:05:17.051Z,141.32
2023-02-02T23:07:45.337Z,134.63
2023-02-02T23:10:14.655Z,137.70
2023-02-02T23:12:45.578Z,130.55
2023-02-02T23:15:14.134Z,131.70
2023-02-02T23:17:41.746Z,143.63
2023-02-02T23:20:12.109Z,141.15
2023-02-02T23:22:39.573Z,134.85
2023-02-02T23:25:07.626Z,130.48
2023-02-02T23:27:34.881Z,137.35
2023-02-02T23:30:02.237Z,128.70
2023-02-02T23:32:29.438Z,135.25
2023-02-02T23:34:56.736Z,134.82
2023-02-02T23:37:23.947Z,135.63
2023-02-02T23:39:51.254Z,131.38
2023-02-02T23:42:18.647Z,138.07
2023-02-02T23:44:46.020Z,135.80
2023-02-02T23:47:13.509Z,140.02
2023-02-02T23:49:40.839Z,144.30
2023-02-02T23:52:08.126Z,137.60
2023-02-02T23:54:36.093Z,140.60
2023-02-02T23:57:05.819Z,140.10
2023-02-02T23:59:33.137Z,137.27
